createdAt,value
2018-05-17T00:00:45.125Z,76.60
2018-05-17T00:03:12.641Z,76.90
2018-05-17T00:05:41.749Z,76.50
2018-05-17T00:08:09.276Z,76.50
2018-05-17T00:10:36.765Z,76.30
2018-05-17T00:13:04.405Z,76.30
2018-05-17T00:15:31.975Z,76.10
2018-05-17T00:18:00.259Z,76.80
2018-05-17T00:20:29.246Z,76.60
2018-05-17T00:22:57.798Z,76.40
2018-05-17T00:25:26.140Z,76.40
2018-05-17T00:27:53.766Z,75.60
2018-05-17T00:30:22.106Z,76.40
2018-05-17T00:32:51.038Z,76.40
2018-05-17T00:35:19.317Z,76.20
2018-05-17T00:37:48.333Z,76.10
2018-05-17T00:40:15.845Z,75.50
2018-05-17T00:42:43.355Z,76.10
2018-05-17T00:45:11.160Z,76.20
2018-05-17T00:47:38.699Z,76.10
2018-05-17T00:50:06.177Z,75.90
2018-05-17T00:52:34.475Z,75.50
2018-05-17T00:55:02.141Z,76.00
2018-05-17T00:57:34.406Z,76.20
2018-05-17T01:00:01.928Z,76.20
2018-05-17T01:02:29.586Z,75.80
2018-05-17T01:05:01.290Z,76.10
2018-05-17T01:07:28.812Z,76.10
2018-05-17T01:09:56.311Z,75.70
2018-05-17T01:12:23.902Z,75.40
2018-05-17T01:14:51.415Z,75.80
2018-05-17T01:17:19.078Z,75.60
2018-05-17T01:19:46.597Z,75.80
2018-05-17T01:22:14.121Z,75.40
2018-05-17T01:24:42.391Z,75.40
2018-05-17T01:27:10.672Z,75.20
2018-05-17T01:29:38.956Z,74.90
2018-05-17T01:32:11.900Z,74.70
2018-05-17T01:34:39.402Z,74.70
2018-05-17T01:37:19.737Z,75.50
2018-05-17T01:39:47.243Z,75.50
2018-05-17T01:42:15.939Z,76.00
2018-05-17T01:44:47.541Z,75.40
2018-05-17T01:47:15.057Z,75.30
2018-05-17T01:49:42.574Z,74.90
2018-05-17T01:52:10.853Z,74.80
2018-05-17T01:54:43.393Z,75.00
2018-05-17T01:57:11.002Z,74.90
2018-05-17T01:59:39.292Z,75.00
2018-05-17T02:02:06.998Z,75.00
2018-05-17T02:04:34.936Z,74.10
2018-05-17T02:07:02.429Z,74.80
2018-05-17T02:09:29.953Z,74.00
2018-05-17T02:11:57.527Z,74.50
2018-05-17T02:14:25.090Z,74.90
2018-05-17T02:16:52.656Z,74.70
2018-05-17T02:19:24.373Z,75.10
2018-05-17T02:21:51.893Z,75.00
2018-05-17T02:24:19.446Z,75.60
2018-05-17T02:26:47.005Z,75.10
2018-05-17T02:29:14.566Z,75.40
2018-05-17T02:31:42.079Z,75.10
2018-05-17T02:34:09.569Z,74.70
2018-05-17T02:36:37.089Z,75.30
2018-05-17T02:39:05.398Z,75.30
2018-05-17T02:41:33.087Z,75.40
2018-05-17T02:44:01.122Z,75.50
2018-05-17T02:46:28.644Z,75.30
2018-05-17T02:48:56.938Z,74.50
2018-05-17T02:51:24.437Z,74.40
2018-05-17T02:53:52.674Z,73.70
2018-05-17T02:56:20.170Z,74.30
2018-05-17T02:58:47.691Z,73.20
2018-05-17T03:01:16.187Z,73.80
2018-05-17T03:03:44.105Z,74.20
2018-05-17T03:06:12.191Z,73.40
2018-05-17T03:08:40.483Z,73.60
2018-05-17T03:11:08.751Z,73.20
2018-05-17T03:13:36.260Z,73.10
2018-05-17T03:16:03.757Z,72.90
2018-05-17T03:18:32.094Z,73.00
2018-05-17T03:20:59.591Z,72.90
2018-05-17T03:23:27.941Z,72.20
2018-05-17T03:25:55.450Z,73.00
2018-05-17T03:28:27.806Z,72.40
2018-05-17T03:30:56.091Z,72.50
2018-05-17T03:33:28.216Z,72.30
2018-05-17T03:36:00.362Z,72.30
2018-05-17T03:38:27.864Z,72.20
2018-05-17T03:40:55.390Z,72.50
2018-05-17T03:43:22.947Z,72.70
2018-05-17T03:45:50.473Z,72.60
2018-05-17T03:48:18.576Z,72.40
2018-05-17T03:50:46.611Z,72.20
2018-05-17T03:53:15.206Z,73.20
2018-05-17T03:55:42.738Z,73.20
2018-05-17T03:58:10.433Z,71.30
2018-05-17T04:00:49.935Z,71.80
2018-05-17T04:03:29.463Z,72.40
2018-05-17T04:06:23.698Z,71.90
2018-05-17T04:08:51.953Z,72.40
2018-05-17T04:11:20.242Z,73.20
2018-05-17T04:13:48.648Z,72.50
2018-05-17T04:16:16.879Z,72.80
2018-05-17T04:18:44.407Z,72.20
2018-05-17T04:21:11.915Z,72.80
2018-05-17T04:23:40.416Z,72.50
2018-05-17T04:26:10.109Z,71.70
2018-05-17T04:28:37.630Z,71.40
2018-05-17T04:31:05.137Z,71.20
2018-05-17T04:33:32.669Z,71.40
2018-05-17T04:36:00.937Z,71.10
2018-05-17T04:38:28.448Z,70.90
2018-05-17T04:40:56.025Z,70.90
2018-05-17T04:43:23.570Z,70.40
2018-05-17T04:45:51.144Z,70.40
2018-05-17T04:48:18.729Z,70.80
2018-05-17T04:50:46.376Z,70.00
2018-05-17T04:53:13.889Z,69.70
2018-05-17T04:55:41.529Z,69.90
2018-05-17T04:58:10.775Z,68.80
2018-05-17T05:00:38.310Z,68.70
2018-05-17T05:03:05.821Z,68.90
2018-05-17T05:05:33.337Z,69.20
2018-05-17T05:08:01.256Z,68.90
2018-05-17T05:10:32.729Z,69.00
2018-05-17T05:13:01.014Z,69.00
2018-05-17T05:15:29.290Z,69.80
2018-05-17T05:17:57.594Z,70.00
2018-05-17T05:20:25.110Z,69.80
2018-05-17T05:22:52.676Z,69.40
2018-05-17T05:25:21.344Z,69.40
2018-05-17T05:27:48.848Z,68.70
2018-05-17T05:30:16.350Z,67.90
2018-05-17T05:32:43.917Z,68.20
2018-05-17T05:35:11.431Z,67.80
2018-05-17T05:50:38.970Z,67.30
2018-05-17T05:53:10.622Z,70.10
2018-05-17T05:55:38.901Z,67.90
2018-05-17T05:58:06.396Z,67.80
2018-05-17T06:00:35.938Z,67.80
2018-05-17T06:03:03.441Z,68.10
2018-05-17T06:05:30.949Z,67.10
2018-05-17T06:07:58.469Z,66.30
2018-05-17T06:10:26.047Z,66.00
2018-05-17T06:12:57.534Z,66.60
2018-05-17T06:15:25.869Z,65.10
2018-05-17T06:17:53.365Z,65.10
2018-05-17T06:20:20.883Z,65.40
2018-05-17T06:22:48.403Z,65.80
2018-05-17T06:25:16.705Z,65.70
2018-05-17T06:27:44.225Z,65.70
2018-05-17T06:30:12.503Z,66.80
2018-05-17T06:32:41.062Z,66.50
2018-05-17T06:35:08.563Z,66.40
2018-05-17T06:37:36.860Z,65.90
2018-05-17T06:40:13.334Z,66.00
2018-05-17T06:42:49.030Z,65.30
2018-05-17T06:45:16.545Z,66.40
2018-05-17T06:47:48.226Z,65.50
2018-05-17T06:50:15.734Z,65.20
2018-05-17T06:52:44.631Z,64.80
2018-05-17T06:55:12.149Z,64.70
2018-05-17T06:57:39.694Z,64.30
2018-05-17T07:00:07.229Z,64.30
2018-05-17T07:02:34.726Z,64.60
2018-05-17T07:05:02.321Z,63.70
2018-05-17T07:07:30.588Z,63.20
2018-05-17T07:09:59.446Z,63.00
2018-05-17T07:12:27.292Z,63.00
2018-05-17T07:27:58.713Z,63.20
2018-05-17T07:30:26.619Z,66.00
2018-05-17T07:32:54.117Z,64.80
2018-05-17T07:35:22.853Z,64.00
2018-05-17T07:37:50.738Z,64.00
2018-05-17T07:40:18.368Z,65.00
2018-05-17T07:42:46.344Z,63.20
2018-05-17T07:45:13.837Z,62.90
2018-05-17T07:47:42.042Z,63.20
2018-05-17T07:50:10.316Z,62.80
2018-05-17T07:52:39.376Z,63.30
2018-05-17T07:55:07.618Z,63.20
2018-05-17T07:57:35.173Z,63.50
2018-05-17T08:00:02.690Z,62.90
2018-05-17T08:02:30.191Z,63.20
2018-05-17T08:04:58.405Z,63.90
2018-05-17T08:07:27.257Z,62.80
2018-05-17T08:09:55.531Z,62.10
2018-05-17T08:12:27.107Z,62.40
2018-05-17T08:14:54.964Z,62.50
2018-05-17T08:17:22.497Z,63.00
2018-05-17T08:19:50.011Z,62.80
2018-05-17T08:22:17.517Z,61.90
2018-05-17T08:24:45.034Z,61.30
2018-05-17T08:27:12.537Z,61.10
2018-05-17T08:29:40.069Z,61.40
2018-05-17T08:32:07.634Z,60.50
2018-05-17T08:34:35.923Z,62.20
2018-05-17T08:37:04.204Z,61.50
2018-05-17T08:39:37.313Z,61.70
2018-05-17T08:42:06.470Z,61.70
2018-05-17T08:44:34.017Z,61.50
2018-05-17T08:47:01.576Z,62.30
2018-05-17T08:49:29.621Z,61.90
2018-05-17T08:51:57.286Z,60.90
2018-05-17T08:54:24.833Z,60.60
2018-05-17T08:56:52.794Z,60.10
2018-05-17T08:59:20.310Z,59.60
2018-05-17T09:01:48.742Z,60.90
2018-05-17T09:04:16.238Z,60.40
2018-05-17T09:06:44.837Z,60.10
2018-05-17T09:09:12.397Z,60.50
2018-05-17T09:11:39.891Z,59.90
2018-05-17T09:14:07.422Z,59.70
2018-05-17T09:16:39.763Z,58.90
2018-05-17T09:19:15.350Z,58.90
2018-05-17T09:21:44.422Z,58.20
2018-05-17T09:24:11.930Z,58.20
2018-05-17T09:26:39.443Z,59.10
2018-05-17T09:29:07.800Z,58.80
2018-05-17T09:31:36.169Z,59.10
2018-05-17T09:34:04.533Z,59.00
2018-05-17T09:36:32.063Z,59.00
2018-05-17T09:39:00.704Z,57.50
2018-05-17T09:41:28.307Z,57.40
2018-05-17T09:43:55.864Z,58.20
2018-05-17T09:46:24.202Z,56.00
2018-05-17T09:48:51.706Z,56.00
2018-05-17T09:51:28.646Z,54.60
2018-05-17T09:53:56.180Z,54.60
2018-05-17T09:56:23.753Z,54.70
2018-05-17T09:58:51.425Z,54.70
2018-05-17T10:01:19.050Z,56.70
2018-05-17T10:03:46.556Z,55.40
2018-05-17T10:06:14.065Z,53.50
2018-05-17T10:08:41.848Z,53.00
2018-05-17T10:11:09.354Z,51.60
2018-05-17T10:26:41.036Z,51.10
2018-05-17T10:29:09.188Z,52.50
2018-05-17T10:31:37.467Z,52.10
2018-05-17T10:34:05.788Z,50.00
2018-05-17T10:36:33.328Z,50.00
2018-05-17T10:39:00.873Z,51.20
2018-05-17T10:41:28.472Z,49.10
2018-05-17T10:43:56.065Z,49.50
2018-05-17T10:46:23.670Z,49.20
2018-05-17T10:48:51.305Z,50.60
2018-05-17T10:51:19.523Z,50.30
2018-05-17T10:53:47.033Z,50.80
2018-05-17T10:56:15.324Z,47.90
2018-05-17T10:58:43.601Z,47.90
2018-05-17T11:01:11.134Z,49.10
2018-05-17T11:03:38.646Z,48.90
2018-05-17T11:06:06.170Z,50.30
2018-05-17T11:08:34.445Z,48.80
2018-05-17T11:11:02.757Z,48.20
2018-05-17T11:13:30.460Z,48.20
2018-05-17T11:15:58.000Z,46.70
2018-05-17T11:18:25.493Z,46.90
2018-05-17T11:20:53.029Z,45.50
2018-05-17T11:23:21.563Z,46.40
2018-05-17T11:25:49.169Z,46.90
2018-05-17T11:28:16.851Z,46.90
2018-05-17T11:30:44.381Z,46.70
2018-05-17T11:33:11.908Z,46.50
2018-05-17T11:35:40.159Z,46.10
2018-05-17T11:38:08.451Z,45.80
2018-05-17T11:40:36.763Z,45.10
2018-05-17T11:43:04.324Z,45.00
2018-05-17T11:45:31.840Z,45.20
2018-05-17T11:48:00.133Z,46.10
2018-05-17T11:50:27.735Z,46.10
2018-05-17T11:52:56.585Z,46.00
2018-05-17T11:55:24.722Z,46.80
2018-05-17T11:57:52.950Z,45.90
2018-05-17T12:00:20.824Z,45.80
2018-05-17T12:02:52.764Z,46.40
2018-05-17T12:05:20.307Z,47.20
2018-05-17T12:07:48.574Z,45.70
2018-05-17T12:10:16.109Z,45.70
2018-05-17T12:12:43.612Z,46.40
2018-05-17T12:15:16.040Z,47.40
2018-05-17T12:17:43.569Z,47.40
2018-05-17T12:20:15.304Z,47.10
2018-05-17T12:22:42.829Z,48.10
2018-05-17T12:25:10.337Z,45.70
2018-05-17T12:27:37.850Z,46.40
2018-05-17T12:30:05.346Z,46.90
2018-05-17T12:32:36.694Z,47.00
2018-05-17T12:35:04.205Z,45.90
2018-05-17T12:37:31.817Z,47.10
2018-05-17T12:40:03.402Z,45.20
2018-05-17T12:42:30.935Z,45.10
2018-05-17T12:45:02.294Z,45.50
2018-05-17T12:47:29.905Z,45.80
2018-05-17T12:49:57.421Z,44.60
2018-05-17T12:52:25.334Z,44.60
2018-05-17T12:54:52.841Z,44.80
2018-05-17T12:57:25.201Z,44.30
2018-05-17T12:59:53.004Z,46.00
2018-05-17T13:02:21.238Z,44.90
2018-05-17T13:04:48.760Z,44.80
2018-05-17T13:07:16.269Z,44.80
2018-05-17T13:09:43.785Z,44.70
2018-05-17T13:12:11.372Z,44.70
2018-05-17T13:14:39.443Z,45.30
2018-05-17T13:17:07.750Z,46.50
2018-05-17T13:19:35.733Z,46.50
2018-05-17T13:22:07.508Z,44.60
2018-05-17T13:24:35.494Z,44.10
2018-05-17T13:27:03.065Z,45.00
2018-05-17T13:29:31.335Z,44.30
2018-05-17T13:31:58.899Z,44.30
2018-05-17T13:34:27.185Z,45.60
2018-05-17T13:36:55.488Z,45.30
2018-05-17T13:39:22.993Z,45.30
2018-05-17T13:41:51.146Z,45.40
2018-05-17T13:44:19.275Z,45.10
2018-05-17T13:46:47.765Z,44.40
2018-05-17T13:49:15.391Z,44.40
2018-05-17T13:51:42.879Z,44.20
2018-05-17T13:54:11.157Z,44.30
2018-05-17T13:56:39.725Z,44.20
2018-05-17T13:59:12.173Z,44.20
2018-05-17T14:01:44.446Z,44.10
2018-05-17T14:04:15.939Z,43.70
2018-05-17T14:06:43.447Z,43.60
2018-05-17T14:09:10.964Z,42.80
2018-05-17T14:11:38.482Z,42.70
2018-05-17T14:14:06.009Z,42.80
2018-05-17T14:16:33.505Z,42.60
2018-05-17T14:19:01.431Z,41.50
2018-05-17T14:21:29.807Z,40.50
2018-05-17T14:23:57.359Z,41.40
2018-05-17T14:26:24.922Z,39.10
2018-05-17T14:28:52.451Z,38.20
2018-05-17T14:31:21.305Z,38.40
2018-05-17T14:33:48.824Z,37.70
2018-05-17T14:36:16.339Z,37.20
2018-05-17T14:38:44.859Z,37.10
2018-05-17T14:41:13.233Z,38.00
2018-05-17T14:43:41.346Z,38.00
2018-05-17T14:46:08.980Z,37.80
2018-05-17T14:48:41.125Z,39.10
2018-05-17T14:51:09.409Z,42.10
2018-05-17T14:53:37.674Z,42.30
2018-05-17T14:56:05.956Z,43.20
2018-05-17T14:58:34.249Z,44.10
2018-05-17T15:01:04.601Z,44.10
2018-05-17T15:03:36.230Z,45.30
2018-05-17T15:06:03.845Z,45.50
2018-05-17T15:08:31.494Z,46.50
2018-05-17T15:10:59.344Z,47.30
2018-05-17T15:13:26.584Z,47.40
2018-05-17T15:15:54.108Z,47.40
2018-05-17T15:18:22.421Z,49.10
2018-05-17T15:20:49.930Z,49.10
2018-05-17T15:23:17.457Z,48.90
2018-05-17T15:25:45.422Z,49.70
2018-05-17T15:28:13.320Z,49.70
2018-05-17T15:30:41.641Z,49.80
2018-05-17T15:33:09.150Z,50.00
2018-05-17T15:35:36.686Z,50.40
2018-05-17T15:38:04.284Z,51.00
2018-05-17T15:40:32.494Z,50.50
2018-05-17T15:42:59.995Z,51.00
2018-05-17T15:45:27.533Z,51.30
2018-05-17T15:47:55.055Z,51.70
2018-05-17T15:50:23.352Z,53.20
2018-05-17T15:52:50.902Z,53.20
2018-05-17T15:55:19.167Z,54.60
2018-05-17T15:57:47.592Z,55.00
2018-05-17T16:00:16.010Z,55.30
2018-05-17T16:02:44.005Z,55.30
2018-05-17T16:05:12.285Z,55.90
2018-05-17T16:07:40.585Z,56.10
2018-05-17T16:10:08.106Z,56.00
2018-05-17T16:12:36.395Z,56.10
2018-05-17T16:15:08.950Z,56.20
2018-05-17T16:17:36.985Z,56.10
2018-05-17T16:20:08.578Z,56.80
2018-05-17T16:22:36.137Z,57.50
2018-05-17T16:25:03.652Z,57.80
2018-05-17T16:27:31.170Z,58.00
2018-05-17T16:29:59.868Z,58.10
2018-05-17T16:32:28.935Z,58.60
2018-05-17T16:34:56.537Z,58.60
2018-05-17T16:37:24.090Z,58.50
2018-05-17T16:39:51.698Z,58.40
2018-05-17T16:42:26.474Z,58.10
2018-05-17T16:44:54.768Z,58.00
2018-05-17T16:47:25.930Z,58.00
2018-05-17T16:49:53.480Z,58.10
2018-05-17T16:52:21.043Z,58.20
2018-05-17T16:54:48.606Z,58.70
2018-05-17T16:57:16.109Z,59.60
2018-05-17T16:59:43.628Z,59.80
2018-05-17T17:02:15.061Z,59.60
2018-05-17T17:04:42.877Z,59.90
2018-05-17T17:07:10.399Z,60.00
2018-05-17T17:09:37.965Z,60.00
2018-05-17T17:12:05.495Z,60.60
2018-05-17T17:14:33.980Z,61.20
2018-05-17T17:17:02.177Z,61.20
2018-05-17T17:19:30.426Z,60.90
2018-05-17T17:21:58.710Z,61.30
2018-05-17T17:24:26.229Z,61.20
2018-05-17T17:26:54.026Z,61.70
2018-05-17T17:29:21.538Z,61.70
2018-05-17T17:31:49.094Z,61.90
2018-05-17T17:34:16.701Z,62.10
2018-05-17T17:36:44.200Z,62.40
2018-05-17T17:39:11.706Z,62.30
2018-05-17T17:41:40.034Z,62.50
2018-05-17T17:44:07.593Z,62.50
2018-05-17T17:46:35.176Z,62.50
2018-05-17T17:49:02.918Z,61.90
2018-05-17T17:51:30.421Z,61.90
2018-05-17T17:53:57.966Z,62.10
2018-05-17T17:56:25.611Z,62.20
2018-05-17T17:58:54.012Z,61.70
2018-05-17T18:01:21.775Z,61.60
2018-05-17T18:03:49.322Z,61.20
2018-05-17T18:06:17.638Z,61.20
2018-05-17T18:08:50.429Z,61.20
2018-05-17T18:11:18.697Z,61.10
2018-05-17T18:13:46.992Z,61.90
2018-05-17T18:16:17.162Z,61.80
2018-05-17T18:18:44.693Z,61.90
2018-05-17T18:21:12.257Z,62.50
2018-05-17T18:23:39.802Z,62.60
2018-05-17T18:26:07.330Z,63.40
2018-05-17T18:28:35.953Z,63.80
2018-05-17T18:31:04.030Z,63.80
2018-05-17T18:33:31.553Z,63.90
2018-05-17T18:36:00.545Z,64.20
2018-05-17T18:38:29.467Z,64.10
2018-05-17T18:40:56.977Z,64.10
2018-05-17T18:43:24.494Z,64.10
2018-05-17T18:45:52.367Z,63.90
2018-05-17T18:48:19.917Z,64.30
2018-05-17T18:50:47.438Z,63.40
2018-05-17T18:53:16.058Z,63.50
2018-05-17T18:55:43.617Z,63.40
2018-05-17T18:58:11.222Z,63.90
2018-05-17T19:00:39.468Z,64.10
2018-05-17T19:03:06.990Z,64.40
2018-05-17T19:05:35.270Z,64.10
2018-05-17T19:08:03.209Z,64.00
2018-05-17T19:10:30.718Z,64.30
2018-05-17T19:12:58.248Z,64.10
2018-05-17T19:15:26.588Z,64.40
2018-05-17T19:17:54.149Z,64.40
2018-05-17T19:20:21.773Z,64.20
2018-05-17T19:22:49.215Z,64.90
2018-05-17T19:25:16.767Z,64.60
2018-05-17T19:27:45.055Z,64.70
2018-05-17T19:30:12.576Z,64.70
2018-05-17T19:32:40.100Z,64.10
2018-05-17T19:48:12.708Z,64.40
2018-05-17T19:50:40.245Z,67.60
2018-05-17T19:53:07.764Z,67.00
2018-05-17T19:55:35.300Z,66.50
2018-05-17T19:58:03.603Z,65.60
2018-05-17T20:00:31.114Z,65.60
2018-05-17T20:02:58.631Z,64.80
2018-05-17T20:05:26.144Z,64.90
2018-05-17T20:07:53.653Z,64.90
2018-05-17T20:10:21.164Z,65.10
2018-05-17T20:12:53.185Z,64.90
2018-05-17T20:15:20.698Z,64.10
2018-05-17T20:17:49.471Z,64.60
2018-05-17T20:20:16.982Z,64.40
2018-05-17T20:22:45.421Z,64.70
2018-05-17T20:25:13.747Z,65.40
2018-05-17T20:27:41.263Z,65.40
2018-05-17T20:30:09.540Z,65.30
2018-05-17T20:32:37.865Z,65.60
2018-05-17T20:35:05.397Z,66.10
2018-05-17T20:37:32.901Z,65.50
2018-05-17T20:40:00.434Z,65.30
2018-05-17T20:42:28.739Z,65.00
2018-05-17T20:44:57.053Z,65.00
2018-05-17T20:47:29.313Z,65.20
2018-05-17T20:50:00.742Z,65.20
2018-05-17T20:52:28.317Z,65.20
2018-05-17T20:54:56.923Z,65.30
2018-05-17T20:57:25.356Z,65.70
2018-05-17T20:59:52.882Z,65.70
2018-05-17T21:02:24.572Z,65.50
2018-05-17T21:04:52.133Z,65.20
2018-05-17T21:07:19.641Z,65.80
2018-05-17T21:09:47.962Z,65.70
2018-05-17T21:12:15.490Z,65.60
2018-05-17T21:14:43.007Z,65.80
2018-05-17T21:17:10.529Z,65.60
2018-05-17T21:19:38.910Z,66.20
2018-05-17T21:22:06.421Z,66.40
2018-05-17T21:24:34.013Z,67.00
2018-05-17T21:27:01.534Z,66.90
2018-05-17T21:29:33.865Z,65.80
2018-05-17T21:32:02.500Z,66.40
2018-05-17T21:34:30.772Z,66.70
2018-05-17T21:36:58.296Z,66.70
2018-05-17T21:39:25.841Z,66.30
2018-05-17T21:41:53.373Z,65.60
2018-05-17T21:44:21.716Z,65.60
2018-05-17T21:46:49.233Z,65.60
2018-05-17T21:49:17.079Z,64.70
2018-05-17T21:51:44.580Z,65.30
2018-05-17T21:54:12.181Z,65.30
2018-05-17T21:56:40.473Z,66.20
2018-05-17T21:59:09.021Z,65.60
2018-05-17T22:01:36.524Z,65.70
2018-05-17T22:04:04.044Z,66.10
2018-05-17T22:06:31.544Z,65.40
2018-05-17T22:08:59.066Z,66.10
2018-05-17T22:11:27.386Z,66.30
2018-05-17T22:13:54.877Z,65.90
2018-05-17T22:16:22.400Z,66.30
2018-05-17T22:18:49.982Z,66.20
2018-05-17T22:21:21.353Z,66.10
2018-05-17T22:23:49.226Z,65.30
2018-05-17T22:26:16.932Z,65.60
2018-05-17T22:28:48.357Z,66.30
2018-05-17T22:44:16.500Z,66.60
2018-05-17T22:46:44.007Z,68.00
2018-05-17T22:49:11.534Z,67.60
2018-05-17T22:51:39.069Z,67.50
2018-05-17T22:54:06.602Z,67.10
2018-05-17T22:56:46.191Z,66.90
2018-05-17T22:59:13.714Z,66.00
2018-05-17T23:01:41.233Z,65.50
2018-05-17T23:04:09.513Z,65.70
2018-05-17T23:06:38.475Z,65.00
2018-05-17T23:09:05.982Z,65.00
2018-05-17T23:11:33.788Z,65.00
2018-05-17T23:14:02.091Z,65.10
2018-05-17T23:16:30.842Z,64.80
2018-05-17T23:18:58.333Z,64.70
2018-05-17T23:21:25.997Z,64.60
2018-05-17T23:23:53.508Z,64.60
2018-05-17T23:26:21.090Z,65.10
2018-05-17T23:28:48.591Z,64.90
2018-05-17T23:31:16.895Z,64.90
2018-05-17T23:33:44.398Z,64.90
2018-05-17T23:36:11.910Z,65.20
2018-05-17T23:38:39.413Z,65.10
2018-05-17T23:41:18.642Z,66.00
2018-05-17T23:43:46.245Z,65.50
2018-05-17T23:46:14.617Z,66.10
2018-05-17T23:48:42.885Z,66.50
2018-05-17T23:51:11.236Z,66.60
2018-05-17T23:53:38.760Z,66.60
2018-05-17T23:56:06.869Z,66.20
2018-05-17T23:58:34.394Z,66.20
